sensor_id;sensor_type;location;lat;lon;timestamp;P1;durP1;ratioP1;P2;durP2;ratioP2
18596;SDS011;9428;50.950;6.912;2023-08-06T00:02:05;5.43;;;3.70;;
18596;SDS011;9428;50.950;6.912;2023-08-06T00:04:52;7.70;;;3.42;;
18596;SDS011;9428;50.950;6.912;2023-08-06T00:07:39;6.28;;;3.47;;
18596;SDS011;9428;50.950;6.912;2023-08-06T00:10:28;5.63;;;3.25;;
18596;SDS011;9428;50.950;6.912;2023-08-06T00:13:15;5.03;;;3.17;;
18596;SDS011;9428;50.950;6.912;2023-08-06T00:16:09;6.28;;;3.40;;
18596;SDS011;9428;50.950;6.912;2023-08-06T00:18:56;6.63;;;3.17;;
18596;SDS011;9428;50.950;6.912;2023-08-06T00:21:44;4.47;;;3.33;;
18596;SDS011;9428;50.950;6.912;2023-08-06T00:24:31;4.47;;;3.30;;
18596;SDS011;9428;50.950;6.912;2023-08-06T00:27:19;5.45;;;3.42;;
18596;SDS011;9428;50.950;6.912;2023-08-06T00:30:07;5.50;;;3.63;;
18596;SDS011;9428;50.950;6.912;2023-08-06T00:32:54;4.50;;;3.08;;
18596;SDS011;9428;50.950;6.912;2023-08-06T00:35:41;5.25;;;2.80;;
18596;SDS011;9428;50.950;6.912;2023-08-06T00:38:28;5.10;;;3.40;;
18596;SDS011;9428;50.950;6.912;2023-08-06T00:41:16;6.90;;;5.00;;
18596;SDS011;9428;50.950;6.912;2023-08-06T00:44:04;9.52;;;4.72;;
18596;SDS011;9428;50.950;6.912;2023-08-06T00:46:52;3.47;;;2.95;;
18596;SDS011;9428;50.950;6.912;2023-08-06T00:49:39;6.97;;;3.33;;
18596;SDS011;9428;50.950;6.912;2023-08-06T00:52:26;7.00;;;3.47;;
18596;SDS011;9428;50.950;6.912;2023-08-06T00:55:14;5.03;;;3.58;;
18596;SDS011;9428;50.950;6.912;2023-08-06T00:58:02;4.18;;;3.17;;
18596;SDS011;9428;50.950;6.912;2023-08-06T01:00:51;7.03;;;4.05;;
18596;SDS011;9428;50.950;6.912;2023-08-06T01:03:38;6.63;;;3.53;;
18596;SDS011;9428;50.950;6.912;2023-08-06T01:06:29;5.78;;;3.78;;
18596;SDS011;9428;50.950;6.912;2023-08-06T01:09:28;6.75;;;3.92;;
18596;SDS011;9428;50.950;6.912;2023-08-06T01:12:25;4.20;;;3.10;;
18596;SDS011;9428;50.950;6.912;2023-08-06T01:15:22;6.88;;;3.72;;
18596;SDS011;9428;50.950;6.912;2023-08-06T01:18:15;5.40;;;3.00;;
18596;SDS011;9428;50.950;6.912;2023-08-06T01:21:04;4.85;;;3.15;;
18596;SDS011;9428;50.950;6.912;2023-08-06T01:23:51;5.30;;;3.05;;
18596;SDS011;9428;50.950;6.912;2023-08-06T01:26:39;3.67;;;3.00;;
18596;SDS011;9428;50.950;6.912;2023-08-06T01:29:32;6.68;;;3.83;;
18596;SDS011;9428;50.950;6.912;2023-08-06T01:32:24;5.03;;;3.20;;
18596;SDS011;9428;50.950;6.912;2023-08-06T01:35:14;5.20;;;3.67;;
18596;SDS011;9428;50.950;6.912;2023-08-06T01:38:03;5.13;;;3.22;;
18596;SDS011;9428;50.950;6.912;2023-08-06T01:40:51;6.50;;;3.50;;
18596;SDS011;9428;50.950;6.912;2023-08-06T01:43:38;5.68;;;3.15;;
18596;SDS011;9428;50.950;6.912;2023-08-06T01:46:25;4.60;;;3.72;;
18596;SDS011;9428;50.950;6.912;2023-08-06T01:49:12;5.00;;;3.58;;
18596;SDS011;9428;50.950;6.912;2023-08-06T01:52:00;4.72;;;3.30;;
18596;SDS011;9428;50.950;6.912;2023-08-06T01:54:48;3.67;;;2.78;;
18596;SDS011;9428;50.950;6.912;2023-08-06T01:57:35;4.78;;;3.30;;
18596;SDS011;9428;50.950;6.912;2023-08-06T02:00:23;4.82;;;3.70;;
18596;SDS011;9428;50.950;6.912;2023-08-06T02:03:10;5.55;;;3.60;;
18596;SDS011;9428;50.950;6.912;2023-08-06T02:05:57;4.80;;;3.25;;
18596;SDS011;9428;50.950;6.912;2023-08-06T02:08:44;6.47;;;3.30;;
18596;SDS011;9428;50.950;6.912;2023-08-06T02:11:33;5.82;;;3.60;;
18596;SDS011;9428;50.950;6.912;2023-08-06T02:14:20;7.65;;;3.35;;
18596;SDS011;9428;50.950;6.912;2023-08-06T02:17:07;5.53;;;3.88;;
18596;SDS011;9428;50.950;6.912;2023-08-06T02:19:54;6.80;;;3.53;;
18596;SDS011;9428;50.950;6.912;2023-08-06T02:22:42;5.10;;;2.83;;
18596;SDS011;9428;50.950;6.912;2023-08-06T02:25:29;5.55;;;2.70;;
18596;SDS011;9428;50.950;6.912;2023-08-06T02:28:18;3.47;;;3.05;;
18596;SDS011;9428;50.950;6.912;2023-08-06T02:31:05;5.40;;;3.30;;
18596;SDS011;9428;50.950;6.912;2023-08-06T02:33:53;5.00;;;3.40;;
18596;SDS011;9428;50.950;6.912;2023-08-06T02:36:40;5.85;;;3.47;;
18596;SDS011;9428;50.950;6.912;2023-08-06T02:39:27;6.30;;;3.30;;
18596;SDS011;9428;50.950;6.912;2023-08-06T02:42:14;6.10;;;3.35;;
18596;SDS011;9428;50.950;6.912;2023-08-06T02:45:04;3.63;;;2.72;;
18596;SDS011;9428;50.950;6.912;2023-08-06T02:47:51;4.18;;;2.97;;
18596;SDS011;9428;50.950;6.912;2023-08-06T02:50:39;4.43;;;2.70;;
18596;SDS011;9428;50.950;6.912;2023-08-06T02:53:27;5.22;;;3.10;;
18596;SDS011;9428;50.950;6.912;2023-08-06T02:56:14;5.32;;;3.03;;
18596;SDS011;9428;50.950;6.912;2023-08-06T02:59:01;5.43;;;2.80;;
18596;SDS011;9428;50.950;6.912;2023-08-06T03:01:50;5.18;;;3.47;;
18596;SDS011;9428;50.950;6.912;2023-08-06T03:04:37;4.53;;;3.10;;
18596;SDS011;9428;50.950;6.912;2023-08-06T03:07:24;3.85;;;3.17;;
18596;SDS011;9428;50.950;6.912;2023-08-06T03:10:11;7.10;;;2.92;;
18596;SDS011;9428;50.950;6.912;2023-08-06T03:12:58;7.38;;;3.67;;
18596;SDS011;9428;50.950;6.912;2023-08-06T03:15:51;4.72;;;3.08;;
18596;SDS011;9428;50.950;6.912;2023-08-06T03:18:41;6.05;;;3.00;;
18596;SDS011;9428;50.950;6.912;2023-08-06T03:21:28;6.93;;;3.28;;
18596;SDS011;9428;50.950;6.912;2023-08-06T03:24:15;6.07;;;3.50;;
18596;SDS011;9428;50.950;6.912;2023-08-06T03:27:03;4.53;;;3.42;;
18596;SDS011;9428;50.950;6.912;2023-08-06T03:29:50;3.00;;;2.70;;
18596;SDS011;9428;50.950;6.912;2023-08-06T03:32:37;4.85;;;2.70;;
18596;SDS011;9428;50.950;6.912;2023-08-06T03:35:26;4.68;;;2.80;;
18596;SDS011;9428;50.950;6.912;2023-08-06T03:38:13;5.43;;;3.53;;
18596;SDS011;9428;50.950;6.912;2023-08-06T03:41:00;6.45;;;3.70;;
18596;SDS011;9428;50.950;6.912;2023-08-06T03:43:47;9.38;;;2.60;;
18596;SDS011;9428;50.950;6.912;2023-08-06T03:46:36;6.30;;;2.95;;
18596;SDS011;9428;50.950;6.912;2023-08-06T03:49:23;3.58;;;2.88;;
18596;SDS011;9428;50.950;6.912;2023-08-06T03:52:12;5.15;;;2.80;;
18596;SDS011;9428;50.950;6.912;2023-08-06T03:54:59;4.63;;;2.80;;
18596;SDS011;9428;50.950;6.912;2023-08-06T03:57:46;3.70;;;2.80;;
18596;SDS011;9428;50.950;6.912;2023-08-06T04:00:33;6.35;;;3.25;;
18596;SDS011;9428;50.950;6.912;2023-08-06T04:03:20;5.50;;;3.15;;
18596;SDS011;9428;50.950;6.912;2023-08-06T04:06:08;5.15;;;3.22;;
18596;SDS011;9428;50.950;6.912;2023-08-06T04:08:56;3.60;;;3.10;;
18596;SDS011;9428;50.950;6.912;2023-08-06T04:11:43;4.32;;;2.90;;
18596;SDS011;9428;50.950;6.912;2023-08-06T04:14:31;8.77;;;3.10;;
18596;SDS011;9428;50.950;6.912;2023-08-06T04:17:18;4.82;;;3.05;;
18596;SDS011;9428;50.950;6.912;2023-08-06T04:20:07;4.65;;;2.83;;
18596;SDS011;9428;50.950;6.912;2023-08-06T04:22:54;5.63;;;3.20;;
18596;SDS011;9428;50.950;6.912;2023-08-06T04:25:43;4.65;;;2.90;;
18596;SDS011;9428;50.950;6.912;2023-08-06T04:28:30;5.75;;;2.85;;
18596;SDS011;9428;50.950;6.912;2023-08-06T04:31:17;5.38;;;2.83;;
18596;SDS011;9428;50.950;6.912;2023-08-06T04:34:06;3.47;;;2.53;;
18596;SDS011;9428;50.950;6.912;2023-08-06T04:36:54;4.15;;;2.92;;
18596;SDS011;9428;50.950;6.912;2023-08-06T04:39:41;5.80;;;2.70;;
18596;SDS011;9428;50.950;6.912;2023-08-06T04:42:30;5.40;;;2.70;;
18596;SDS011;9428;50.950;6.912;2023-08-06T04:45:17;5.78;;;2.58;;
18596;SDS011;9428;50.950;6.912;2023-08-06T04:48:04;3.33;;;2.38;;
18596;SDS011;9428;50.950;6.912;2023-08-06T04:50:52;5.03;;;3.00;;
18596;SDS011;9428;50.950;6.912;2023-08-06T04:53:40;5.43;;;2.92;;
18596;SDS011;9428;50.950;6.912;2023-08-06T04:56:27;5.18;;;2.88;;
18596;SDS011;9428;50.950;6.912;2023-08-06T04:59:16;6.82;;;3.40;;
18596;SDS011;9428;50.950;6.912;2023-08-06T05:02:03;2.75;;;2.30;;
18596;SDS011;9428;50.950;6.912;2023-08-06T05:04:50;5.70;;;2.97;;
18596;SDS011;9428;50.950;6.912;2023-08-06T05:07:37;4.03;;;2.63;;
18596;SDS011;9428;50.950;6.912;2023-08-06T05:10:25;5.22;;;2.83;;
18596;SDS011;9428;50.950;6.912;2023-08-06T05:13:13;3.75;;;2.85;;
18596;SDS011;9428;50.950;6.912;2023-08-06T05:16:01;4.50;;;2.80;;
18596;SDS011;9428;50.950;6.912;2023-08-06T05:18:48;3.78;;;2.72;;
18596;SDS011;9428;50.950;6.912;2023-08-06T05:21:36;5.13;;;3.33;;
18596;SDS011;9428;50.950;6.912;2023-08-06T05:24:23;3.35;;;2.58;;
18596;SDS011;9428;50.950;6.912;2023-08-06T05:27:10;9.27;;;3.25;;
18596;SDS011;9428;50.950;6.912;2023-08-06T05:29:57;4.53;;;2.80;;
18596;SDS011;9428;50.950;6.912;2023-08-06T05:32:46;6.03;;;3.28;;
18596;SDS011;9428;50.950;6.912;2023-08-06T05:35:33;5.43;;;2.78;;
18596;SDS011;9428;50.950;6.912;2023-08-06T05:38:20;4.60;;;3.22;;
18596;SDS011;9428;50.950;6.912;2023-08-06T05:41:08;5.03;;;2.63;;
18596;SDS011;9428;50.950;6.912;2023-08-06T05:43:55;3.50;;;2.70;;
18596;SDS011;9428;50.950;6.912;2023-08-06T05:46:42;4.18;;;2.60;;
18596;SDS011;9428;50.950;6.912;2023-08-06T05:49:31;5.13;;;3.03;;
18596;SDS011;9428;50.950;6.912;2023-08-06T05:52:18;2.75;;;2.40;;
18596;SDS011;9428;50.950;6.912;2023-08-06T05:55:05;6.32;;;2.53;;
18596;SDS011;9428;50.950;6.912;2023-08-06T05:57:53;3.90;;;2.80;;
18596;SDS011;9428;50.950;6.912;2023-08-06T06:00:40;4.07;;;2.78;;
18596;SDS011;9428;50.950;6.912;2023-08-06T06:03:28;5.68;;;2.85;;
18596;SDS011;9428;50.950;6.912;2023-08-06T06:06:16;4.25;;;2.92;;
18596;SDS011;9428;50.950;6.912;2023-08-06T06:09:04;4.70;;;2.63;;
18596;SDS011;9428;50.950;6.912;2023-08-06T06:11:51;3.58;;;2.70;;
18596;SDS011;9428;50.950;6.912;2023-08-06T06:14:38;8.40;;;3.00;;
18596;SDS011;9428;50.950;6.912;2023-08-06T06:17:25;4.32;;;2.40;;
18596;SDS011;9428;50.950;6.912;2023-08-06T06:20:13;3.78;;;2.60;;
18596;SDS011;9428;50.950;6.912;2023-08-06T06:23:01;7.43;;;2.90;;
18596;SDS011;9428;50.950;6.912;2023-08-06T06:25:49;7.88;;;3.10;;
18596;SDS011;9428;50.950;6.912;2023-08-06T06:28:37;5.22;;;3.08;;
18596;SDS011;9428;50.950;6.912;2023-08-06T06:31:24;3.83;;;3.05;;
18596;SDS011;9428;50.950;6.912;2023-08-06T06:34:11;3.70;;;2.80;;
18596;SDS011;9428;50.950;6.912;2023-08-06T06:36:58;5.43;;;2.50;;
18596;SDS011;9428;50.950;6.912;2023-08-06T06:39:47;4.63;;;2.72;;
18596;SDS011;9428;50.950;6.912;2023-08-06T06:42:34;5.05;;;2.92;;
18596;SDS011;9428;50.950;6.912;2023-08-06T06:45:21;2.13;;;1.55;;
18596;SDS011;9428;50.950;6.912;2023-08-06T06:48:09;2.42;;;1.70;;
18596;SDS011;9428;50.950;6.912;2023-08-06T06:50:56;1.70;;;1.50;;
18596;SDS011;9428;50.950;6.912;2023-08-06T06:53:43;2.47;;;1.55;;
18596;SDS011;9428;50.950;6.912;2023-08-06T06:56:32;1.63;;;1.30;;
18596;SDS011;9428;50.950;6.912;2023-08-06T06:59:19;1.80;;;1.13;;
18596;SDS011;9428;50.950;6.912;2023-08-06T07:02:06;3.15;;;1.35;;
18596;SDS011;9428;50.950;6.912;2023-08-06T07:04:53;1.95;;;1.00;;
18596;SDS011;9428;50.950;6.912;2023-08-06T07:07:40;1.10;;;1.00;;
18596;SDS011;9428;50.950;6.912;2023-08-06T07:10:27;1.23;;;1.13;;
18596;SDS011;9428;50.950;6.912;2023-08-06T07:13:16;1.48;;;1.10;;
18596;SDS011;9428;50.950;6.912;2023-08-06T07:16:03;1.95;;;1.10;;
18596;SDS011;9428;50.950;6.912;2023-08-06T07:18:50;1.30;;;1.05;;
18596;SDS011;9428;50.950;6.912;2023-08-06T07:21:38;1.38;;;1.13;;
18596;SDS011;9428;50.950;6.912;2023-08-06T07:24:25;2.10;;;1.05;;
18596;SDS011;9428;50.950;6.912;2023-08-06T07:27:13;1.10;;;1.00;;
18596;SDS011;9428;50.950;6.912;2023-08-06T07:30:01;1.10;;;1.00;;
18596;SDS011;9428;50.950;6.912;2023-08-06T07:32:50;1.00;;;0.90;;
18596;SDS011;9428;50.950;6.912;2023-08-06T07:35:39;2.25;;;1.08;;
18596;SDS011;9428;50.950;6.912;2023-08-06T07:38:26;2.30;;;1.00;;
18596;SDS011;9428;50.950;6.912;2023-08-06T07:41:14;2.15;;;1.00;;
18596;SDS011;9428;50.950;6.912;2023-08-06T07:44:01;1.00;;;0.90;;
18596;SDS011;9428;50.950;6.912;2023-08-06T07:46:50;1.10;;;1.00;;
18596;SDS011;9428;50.950;6.912;2023-08-06T07:49:37;1.33;;;0.98;;
18596;SDS011;9428;50.950;6.912;2023-08-06T07:52:24;1.67;;;0.80;;
18596;SDS011;9428;50.950;6.912;2023-08-06T07:55:11;1.35;;;0.90;;
18596;SDS011;9428;50.950;6.912;2023-08-06T07:57:58;0.93;;;0.90;;
18596;SDS011;9428;50.950;6.912;2023-08-06T08:00:46;0.95;;;0.88;;
18596;SDS011;9428;50.950;6.912;2023-08-06T08:03:35;0.77;;;0.70;;
18596;SDS011;9428;50.950;6.912;2023-08-06T08:06:22;1.77;;;0.80;;
18596;SDS011;9428;50.950;6.912;2023-08-06T08:09:09;2.40;;;1.20;;
18596;SDS011;9428;50.950;6.912;2023-08-06T08:11:58;1.13;;;0.82;;
18596;SDS011;9428;50.950;6.912;2023-08-06T08:14:48;1.35;;;0.98;;
18596;SDS011;9428;50.950;6.912;2023-08-06T08:17:35;0.73;;;0.70;;
18596;SDS011;9428;50.950;6.912;2023-08-06T08:20:23;1.00;;;0.90;;
18596;SDS011;9428;50.950;6.912;2023-08-06T08:23:13;1.23;;;1.02;;
18596;SDS011;9428;50.950;6.912;2023-08-06T08:26:00;0.85;;;0.82;;
18596;SDS011;9428;50.950;6.912;2023-08-06T08:28:49;3.75;;;0.85;;
18596;SDS011;9428;50.950;6.912;2023-08-06T08:31:36;1.83;;;0.80;;
18596;SDS011;9428;50.950;6.912;2023-08-06T08:34:24;1.63;;;0.80;;
18596;SDS011;9428;50.950;6.912;2023-08-06T08:37:13;2.10;;;0.77;;
18596;SDS011;9428;50.950;6.912;2023-08-06T08:40:00;0.73;;;0.70;;
18596;SDS011;9428;50.950;6.912;2023-08-06T08:42:49;0.73;;;0.73;;
18596;SDS011;9428;50.950;6.912;2023-08-06T08:45:36;1.10;;;1.00;;
18596;SDS011;9428;50.950;6.912;2023-08-06T08:48:26;0.80;;;0.80;;
18596;SDS011;9428;50.950;6.912;2023-08-06T08:51:15;1.40;;;1.10;;
18596;SDS011;9428;50.950;6.912;2023-08-06T08:54:04;2.33;;;1.05;;
18596;SDS011;9428;50.950;6.912;2023-08-06T08:56:55;1.25;;;1.00;;
18596;SDS011;9428;50.950;6.912;2023-08-06T08:59:42;1.23;;;1.13;;
18596;SDS011;9428;50.950;6.912;2023-08-06T09:02:29;1.30;;;1.17;;
18596;SDS011;9428;50.950;6.912;2023-08-06T09:05:18;1.13;;;1.02;;
18596;SDS011;9428;50.950;6.912;2023-08-06T09:08:11;1.20;;;1.10;;
18596;SDS011;9428;50.950;6.912;2023-08-06T09:11:03;1.30;;;1.20;;
18596;SDS011;9428;50.950;6.912;2023-08-06T09:13:53;1.40;;;1.30;;
18596;SDS011;9428;50.950;6.912;2023-08-06T09:16:41;1.52;;;1.42;;
18596;SDS011;9428;50.950;6.912;2023-08-06T09:19:28;1.50;;;1.40;;
18596;SDS011;9428;50.950;6.912;2023-08-06T09:22:15;2.25;;;1.80;;
18596;SDS011;9428;50.950;6.912;2023-08-06T09:25:03;3.05;;;1.45;;
18596;SDS011;9428;50.950;6.912;2023-08-06T09:27:56;13.82;;;3.50;;
18596;SDS011;9428;50.950;6.912;2023-08-06T09:30:43;1.85;;;1.70;;
18596;SDS011;9428;50.950;6.912;2023-08-06T09:33:35;3.25;;;1.80;;
18596;SDS011;9428;50.950;6.912;2023-08-06T09:36:23;3.10;;;2.38;;
18596;SDS011;9428;50.950;6.912;2023-08-06T09:39:14;3.00;;;2.67;;
18596;SDS011;9428;50.950;6.912;2023-08-06T09:42:02;2.80;;;2.50;;
18596;SDS011;9428;50.950;6.912;2023-08-06T09:44:51;4.18;;;3.20;;
18596;SDS011;9428;50.950;6.912;2023-08-06T09:47:43;4.82;;;4.07;;
18596;SDS011;9428;50.950;6.912;2023-08-06T09:50:31;4.53;;;3.92;;
18596;SDS011;9428;50.950;6.912;2023-08-06T09:53:18;5.50;;;3.95;;
18596;SDS011;9428;50.950;6.912;2023-08-06T09:56:06;5.50;;;4.60;;
18596;SDS011;9428;50.950;6.912;2023-08-06T09:58:55;3.45;;;2.92;;
18596;SDS011;9428;50.950;6.912;2023-08-06T10:01:44;3.00;;;2.70;;
18596;SDS011;9428;50.950;6.912;2023-08-06T10:04:32;5.38;;;2.40;;
18596;SDS011;9428;50.950;6.912;2023-08-06T10:07:20;2.58;;;1.60;;
18596;SDS011;9428;50.950;6.912;2023-08-06T10:10:09;2.42;;;1.40;;
18596;SDS011;9428;50.950;6.912;2023-08-06T10:12:57;5.70;;;1.45;;
18596;SDS011;9428;50.950;6.912;2023-08-06T10:15:46;6.32;;;1.50;;
18596;SDS011;9428;50.950;6.912;2023-08-06T10:18:34;1.60;;;1.05;;
18596;SDS011;9428;50.950;6.912;2023-08-06T10:21:24;2.05;;;0.95;;
18596;SDS011;9428;50.950;6.912;2023-08-06T10:24:13;2.25;;;0.80;;
18596;SDS011;9428;50.950;6.912;2023-08-06T10:27:00;2.45;;;0.85;;
18596;SDS011;9428;50.950;6.912;2023-08-06T10:29:48;0.63;;;0.60;;
18596;SDS011;9428;50.950;6.912;2023-08-06T10:32:46;0.70;;;0.70;;
18596;SDS011;9428;50.950;6.912;2023-08-06T10:35:36;1.15;;;1.00;;
18596;SDS011;9428;50.950;6.912;2023-08-06T10:38:24;1.65;;;1.13;;
18596;SDS011;9428;50.950;6.912;2023-08-06T10:41:22;2.28;;;1.92;;
18596;SDS011;9428;50.950;6.912;2023-08-06T10:44:13;2.75;;;1.60;;
18596;SDS011;9428;50.950;6.912;2023-08-06T10:50:12;1.65;;;1.25;;
18596;SDS011;9428;50.950;6.912;2023-08-06T10:53:04;2.13;;;1.40;;
18596;SDS011;9428;50.950;6.912;2023-08-06T10:55:53;2.97;;;1.38;;
18596;SDS011;9428;50.950;6.912;2023-08-06T10:58:40;2.38;;;1.65;;
18596;SDS011;9428;50.950;6.912;2023-08-06T11:01:28;3.42;;;1.80;;
18596;SDS011;9428;50.950;6.912;2023-08-06T11:04:16;2.10;;;1.65;;
18596;SDS011;9428;50.950;6.912;2023-08-06T11:07:04;2.80;;;1.80;;
18596;SDS011;9428;50.950;6.912;2023-08-06T11:09:55;2.45;;;1.85;;
18596;SDS011;9428;50.950;6.912;2023-08-06T11:12:48;7.13;;;2.10;;
18596;SDS011;9428;50.950;6.912;2023-08-06T11:15:35;3.60;;;2.10;;
18596;SDS011;9428;50.950;6.912;2023-08-06T11:18:22;6.40;;;2.28;;
18596;SDS011;9428;50.950;6.912;2023-08-06T11:21:10;2.72;;;1.92;;
18596;SDS011;9428;50.950;6.912;2023-08-06T11:23:58;2.90;;;2.00;;
18596;SDS011;9428;50.950;6.912;2023-08-06T11:26:47;2.33;;;1.65;;
18596;SDS011;9428;50.950;6.912;2023-08-06T11:29:36;3.03;;;2.08;;
18596;SDS011;9428;50.950;6.912;2023-08-06T11:32:24;2.40;;;1.60;;
18596;SDS011;9428;50.950;6.912;2023-08-06T11:35:13;4.88;;;1.90;;
18596;SDS011;9428;50.950;6.912;2023-08-06T11:38:01;6.28;;;2.25;;
18596;SDS011;9428;50.950;6.912;2023-08-06T11:40:48;4.20;;;1.98;;
18596;SDS011;9428;50.950;6.912;2023-08-06T11:43:38;3.88;;;1.83;;
18596;SDS011;9428;50.950;6.912;2023-08-06T11:46:25;4.15;;;1.85;;
18596;SDS011;9428;50.950;6.912;2023-08-06T11:49:12;4.18;;;1.80;;
18596;SDS011;9428;50.950;6.912;2023-08-06T11:52:00;7.57;;;2.03;;
18596;SDS011;9428;50.950;6.912;2023-08-06T11:55:02;6.65;;;1.65;;
18596;SDS011;9428;50.950;6.912;2023-08-06T11:57:52;4.05;;;1.70;;
18596;SDS011;9428;50.950;6.912;2023-08-06T12:00:41;3.17;;;1.63;;
18596;SDS011;9428;50.950;6.912;2023-08-06T12:03:29;3.55;;;1.90;;
18596;SDS011;9428;50.950;6.912;2023-08-06T12:06:16;3.60;;;1.73;;
18596;SDS011;9428;50.950;6.912;2023-08-06T12:09:04;3.05;;;1.40;;
18596;SDS011;9428;50.950;6.912;2023-08-06T12:11:51;3.72;;;1.80;;
18596;SDS011;9428;50.950;6.912;2023-08-06T12:14:38;5.47;;;1.83;;
18596;SDS011;9428;50.950;6.912;2023-08-06T12:17:27;3.55;;;1.55;;
18596;SDS011;9428;50.950;6.912;2023-08-06T12:20:14;5.82;;;2.00;;
18596;SDS011;9428;50.950;6.912;2023-08-06T12:23:02;1.95;;;1.20;;
18596;SDS011;9428;50.950;6.912;2023-08-06T12:25:49;2.42;;;1.48;;
18596;SDS011;9428;50.950;6.912;2023-08-06T12:28:36;1.75;;;1.20;;
18596;SDS011;9428;50.950;6.912;2023-08-06T12:31:23;6.18;;;1.73;;
18596;SDS011;9428;50.950;6.912;2023-08-06T12:34:12;7.20;;;1.80;;
18596;SDS011;9428;50.950;6.912;2023-08-06T12:36:59;2.22;;;1.20;;
18596;SDS011;9428;50.950;6.912;2023-08-06T12:39:46;5.28;;;1.67;;
18596;SDS011;9428;50.950;6.912;2023-08-06T12:42:34;5.85;;;1.60;;
18596;SDS011;9428;50.950;6.912;2023-08-06T12:45:21;7.68;;;2.20;;
18596;SDS011;9428;50.950;6.912;2023-08-06T12:48:09;4.60;;;1.90;;
18596;SDS011;9428;50.950;6.912;2023-08-06T12:50:57;3.72;;;1.60;;
18596;SDS011;9428;50.950;6.912;2023-08-06T12:53:44;2.15;;;1.40;;
18596;SDS011;9428;50.950;6.912;2023-08-06T12:56:32;3.58;;;1.88;;
18596;SDS011;9428;50.950;6.912;2023-08-06T12:59:21;3.30;;;2.22;;
18596;SDS011;9428;50.950;6.912;2023-08-06T13:02:08;3.80;;;1.95;;
18596;SDS011;9428;50.950;6.912;2023-08-06T13:04:56;4.07;;;2.13;;
18596;SDS011;9428;50.950;6.912;2023-08-06T13:07:44;4.50;;;2.05;;
18596;SDS011;9428;50.950;6.912;2023-08-06T13:10:32;3.42;;;1.90;;
18596;SDS011;9428;50.950;6.912;2023-08-06T13:13:19;5.57;;;2.30;;
18596;SDS011;9428;50.950;6.912;2023-08-06T13:16:06;3.92;;;2.60;;
18596;SDS011;9428;50.950;6.912;2023-08-06T13:18:53;7.63;;;2.28;;
18596;SDS011;9428;50.950;6.912;2023-08-06T13:22:00;4.30;;;2.35;;
18596;SDS011;9428;50.950;6.912;2023-08-06T13:24:50;4.50;;;2.00;;
18596;SDS011;9428;50.950;6.912;2023-08-06T13:27:38;4.00;;;2.05;;
18596;SDS011;9428;50.950;6.912;2023-08-06T13:30:25;4.30;;;2.42;;
18596;SDS011;9428;50.950;6.912;2023-08-06T13:33:12;6.15;;;2.35;;
18596;SDS011;9428;50.950;6.912;2023-08-06T13:35:59;6.68;;;2.60;;
18596;SDS011;9428;50.950;6.912;2023-08-06T13:38:47;3.65;;;2.30;;
18596;SDS011;9428;50.950;6.912;2023-08-06T13:41:35;5.05;;;2.45;;
18596;SDS011;9428;50.950;6.912;2023-08-06T13:44:24;5.72;;;2.63;;
18596;SDS011;9428;50.950;6.912;2023-08-06T13:47:11;10.77;;;3.90;;
18596;SDS011;9428;50.950;6.912;2023-08-06T13:49:58;6.35;;;3.30;;
18596;SDS011;9428;50.950;6.912;2023-08-06T13:52:46;6.57;;;3.38;;
18596;SDS011;9428;50.950;6.912;2023-08-06T13:55:33;4.43;;;2.65;;
18596;SDS011;9428;50.950;6.912;2023-08-06T13:58:21;3.60;;;2.47;;
18596;SDS011;9428;50.950;6.912;2023-08-06T14:01:09;2.63;;;2.40;;
18596;SDS011;9428;50.950;6.912;2023-08-06T14:03:58;4.55;;;3.20;;
18596;SDS011;9428;50.950;6.912;2023-08-06T14:06:45;7.40;;;3.17;;
18596;SDS011;9428;50.950;6.912;2023-08-06T14:09:33;3.65;;;2.40;;
18596;SDS011;9428;50.950;6.912;2023-08-06T14:12:20;3.13;;;2.30;;
18596;SDS011;9428;50.950;6.912;2023-08-06T14:15:10;5.68;;;1.98;;
18596;SDS011;9428;50.950;6.912;2023-08-06T14:17:57;5.90;;;2.08;;
18596;SDS011;9428;50.950;6.912;2023-08-06T14:20:47;5.22;;;1.55;;
18596;SDS011;9428;50.950;6.912;2023-08-06T14:23:34;1.67;;;1.17;;
18596;SDS011;9428;50.950;6.912;2023-08-06T14:26:22;4.35;;;1.63;;
18596;SDS011;9428;50.950;6.912;2023-08-06T14:29:09;3.10;;;1.75;;
18596;SDS011;9428;50.950;6.912;2023-08-06T14:31:58;4.75;;;2.15;;
18596;SDS011;9428;50.950;6.912;2023-08-06T14:34:45;3.95;;;1.73;;
18596;SDS011;9428;50.950;6.912;2023-08-06T14:37:33;6.20;;;1.67;;
18596;SDS011;9428;50.950;6.912;2023-08-06T14:40:20;4.30;;;1.20;;
18596;SDS011;9428;50.950;6.912;2023-08-06T14:43:08;5.18;;;2.25;;
18596;SDS011;9428;50.950;6.912;2023-08-06T14:45:56;6.10;;;2.00;;
18596;SDS011;9428;50.950;6.912;2023-08-06T14:48:44;5.72;;;2.17;;
18596;SDS011;9428;50.950;6.912;2023-08-06T14:51:31;5.82;;;1.50;;
18596;SDS011;9428;50.950;6.912;2023-08-06T14:54:18;5.07;;;2.00;;
18596;SDS011;9428;50.950;6.912;2023-08-06T14:57:06;2.83;;;1.92;;
18596;SDS011;9428;50.950;6.912;2023-08-06T14:59:53;1.48;;;0.90;;
18596;SDS011;9428;50.950;6.912;2023-08-06T15:02:41;5.00;;;1.55;;
18596;SDS011;9428;50.950;6.912;2023-08-06T15:05:30;3.70;;;1.25;;
18596;SDS011;9428;50.950;6.912;2023-08-06T15:08:17;3.08;;;1.05;;
18596;SDS011;9428;50.950;6.912;2023-08-06T15:11:04;5.70;;;1.52;;
18596;SDS011;9428;50.950;6.912;2023-08-06T15:13:52;2.53;;;0.95;;
18596;SDS011;9428;50.950;6.912;2023-08-06T15:16:39;3.97;;;1.20;;
18596;SDS011;9428;50.950;6.912;2023-08-06T15:19:26;3.15;;;1.20;;
18596;SDS011;9428;50.950;6.912;2023-08-06T15:22:15;3.17;;;1.50;;
18596;SDS011;9428;50.950;6.912;2023-08-06T15:25:02;3.63;;;1.58;;
18596;SDS011;9428;50.950;6.912;2023-08-06T15:27:50;4.13;;;1.13;;
18596;SDS011;9428;50.950;6.912;2023-08-06T15:30:37;1.95;;;1.25;;
18596;SDS011;9428;50.950;6.912;2023-08-06T15:33:26;3.05;;;1.60;;
18596;SDS011;9428;50.950;6.912;2023-08-06T15:36:13;2.17;;;1.40;;
18596;SDS011;9428;50.950;6.912;2023-08-06T15:39:02;3.50;;;1.40;;
18596;SDS011;9428;50.950;6.912;2023-08-06T15:41:52;5.15;;;1.60;;
18596;SDS011;9428;50.950;6.912;2023-08-06T15:44:42;2.03;;;1.33;;
18596;SDS011;9428;50.950;6.912;2023-08-06T15:47:30;6.22;;;1.88;;
18596;SDS011;9428;50.950;6.912;2023-08-06T15:50:17;3.42;;;1.27;;
18596;SDS011;9428;50.950;6.912;2023-08-06T15:53:05;2.97;;;1.63;;
18596;SDS011;9428;50.950;6.912;2023-08-06T15:55:54;3.40;;;1.35;;
18596;SDS011;9428;50.950;6.912;2023-08-06T15:58:41;6.03;;;1.35;;
18596;SDS011;9428;50.950;6.912;2023-08-06T16:01:28;5.05;;;1.63;;
18596;SDS011;9428;50.950;6.912;2023-08-06T16:04:15;2.10;;;1.45;;
18596;SDS011;9428;50.950;6.912;2023-08-06T16:07:03;4.93;;;2.30;;
18596;SDS011;9428;50.950;6.912;2023-08-06T16:09:50;4.00;;;2.05;;
18596;SDS011;9428;50.950;6.912;2023-08-06T16:12:40;3.38;;;1.80;;
18596;SDS011;9428;50.950;6.912;2023-08-06T16:15:27;3.00;;;1.67;;
18596;SDS011;9428;50.950;6.912;2023-08-06T16:18:16;6.82;;;2.85;;
18596;SDS011;9428;50.950;6.912;2023-08-06T16:21:03;3.88;;;1.92;;
18596;SDS011;9428;50.950;6.912;2023-08-06T16:23:50;4.32;;;2.10;;
18596;SDS011;9428;50.950;6.912;2023-08-06T16:26:37;5.55;;;1.80;;
18596;SDS011;9428;50.950;6.912;2023-08-06T16:29:26;3.75;;;1.60;;
18596;SDS011;9428;50.950;6.912;2023-08-06T16:32:13;4.38;;;1.67;;
18596;SDS011;9428;50.950;6.912;2023-08-06T16:35:00;3.25;;;1.90;;
18596;SDS011;9428;50.950;6.912;2023-08-06T16:37:48;7.55;;;2.45;;
18596;SDS011;9428;50.950;6.912;2023-08-06T16:40:35;4.80;;;2.38;;
18596;SDS011;9428;50.950;6.912;2023-08-06T16:43:22;5.30;;;2.50;;
18596;SDS011;9428;50.950;6.912;2023-08-06T16:46:11;2.65;;;1.50;;
18596;SDS011;9428;50.950;6.912;2023-08-06T16:48:58;4.10;;;2.00;;
18596;SDS011;9428;50.950;6.912;2023-08-06T16:51:46;5.18;;;2.58;;
18596;SDS011;9428;50.950;6.912;2023-08-06T16:54:33;5.63;;;2.30;;
18596;SDS011;9428;50.950;6.912;2023-08-06T16:57:20;5.05;;;2.10;;
18596;SDS011;9428;50.950;6.912;2023-08-06T17:00:07;7.05;;;1.80;;
18596;SDS011;9428;50.950;6.912;2023-08-06T17:02:56;5.47;;;2.75;;
18596;SDS011;9428;50.950;6.912;2023-08-06T17:05:43;2.83;;;2.13;;
18596;SDS011;9428;50.950;6.912;2023-08-06T17:08:31;8.10;;;2.70;;
18596;SDS011;9428;50.950;6.912;2023-08-06T17:11:19;4.40;;;2.60;;